createdAt,value
2018-08-22T00:00:59.778Z,2.37
2018-08-22T00:05:03.147Z,1.50
2018-08-22T00:09:07.907Z,4.17
2018-08-22T00:13:11.239Z,2.40
2018-08-22T00:17:14.598Z,4.07
2018-08-22T00:21:18.029Z,1.67
2018-08-22T00:25:21.433Z,3.90
2018-08-22T00:29:24.776Z,7.10
2018-08-22T00:33:28.108Z,2.50
2018-08-22T00:37:31.439Z,2.57
2018-08-22T00:41:34.779Z,3.00
2018-08-22T00:45:38.123Z,3.43
2018-08-22T00:49:41.486Z,2.30
2018-08-22T00:53:44.814Z,2.27
2018-08-22T00:57:48.188Z,4.17
2018-08-22T01:01:51.743Z,1.80
2018-08-22T01:05:55.883Z,4.57
2018-08-22T01:09:59.250Z,4.53
2018-08-22T01:14:02.600Z,7.13
2018-08-22T01:18:05.978Z,3.63
2018-08-22T01:22:13.654Z,3.70
2018-08-22T01:26:17.017Z,3.03
2018-08-22T01:30:20.340Z,2.60
2018-08-22T01:34:23.705Z,2.97
2018-08-22T01:38:27.142Z,4.87
2018-08-22T01:42:30.496Z,2.13
2018-08-22T01:46:33.833Z,3.17
2018-08-22T01:50:37.193Z,1.97
2018-08-22T01:54:40.530Z,2.63
2018-08-22T01:58:43.929Z,4.53
2018-08-22T02:02:47.532Z,6.13
2018-08-22T02:06:51.741Z,1.60
2018-08-22T02:10:55.099Z,3.20
2018-08-22T02:14:58.438Z,2.77
2018-08-22T02:19:01.803Z,4.57
2018-08-22T02:23:06.483Z,2.73
2018-08-22T02:27:09.799Z,2.27
2018-08-22T02:31:13.144Z,4.30
2018-08-22T02:35:20.900Z,1.77
2018-08-22T02:39:24.241Z,2.03
2018-08-22T02:43:31.712Z,4.27
2018-08-22T02:47:37.855Z,5.57
2018-08-22T02:51:41.239Z,2.63
2018-08-22T02:55:44.571Z,4.03
2018-08-22T02:59:47.891Z,3.53
2018-08-22T03:03:51.271Z,3.30
2018-08-22T03:07:57.854Z,3.93
2018-08-22T03:12:01.208Z,4.77
2018-08-22T03:16:04.536Z,2.33
2018-08-22T03:20:09.127Z,2.30
2018-08-22T03:24:12.478Z,1.50
2018-08-22T03:28:15.812Z,2.83
2018-08-22T03:32:21.493Z,2.03
2018-08-22T03:36:24.826Z,2.67
2018-08-22T03:40:28.183Z,5.37
2018-08-22T03:44:31.510Z,5.90
2018-08-22T03:48:34.860Z,2.57
2018-08-22T03:52:39.983Z,2.90
2018-08-22T03:56:43.305Z,2.33
2018-08-22T04:00:46.657Z,2.93
2018-08-22T04:04:50.015Z,6.60
2018-08-22T04:08:53.408Z,3.27
2018-08-22T04:12:56.784Z,1.37
2018-08-22T04:17:00.163Z,3.40
2018-08-22T04:21:03.580Z,4.73
2018-08-22T04:25:07.292Z,4.10
2018-08-22T04:29:10.604Z,2.83
2018-08-22T04:33:13.984Z,3.23
2018-08-22T04:37:17.394Z,5.27
2018-08-22T04:41:20.759Z,2.60
2018-08-22T04:45:24.100Z,2.67
2018-08-22T04:49:29.779Z,4.97
2018-08-22T04:53:33.103Z,3.80
2018-08-22T04:57:36.437Z,3.97
2018-08-22T05:01:39.776Z,2.33
2018-08-22T05:05:43.158Z,4.67
2018-08-22T05:09:46.476Z,6.50
2018-08-22T05:13:49.844Z,3.30
2018-08-22T05:17:53.176Z,3.67
2018-08-22T05:22:07.004Z,5.00
2018-08-22T05:26:10.336Z,6.50
2018-08-22T05:30:13.760Z,4.80
2018-08-22T05:34:17.088Z,3.90
2018-08-22T05:38:21.063Z,5.10
2018-08-22T05:42:24.512Z,5.27
2018-08-22T05:46:28.492Z,3.30
2018-08-22T05:50:31.815Z,4.83
2018-08-22T05:54:35.132Z,7.30
2018-08-22T05:58:38.472Z,3.63
2018-08-22T06:02:42.336Z,5.30
2018-08-22T06:06:45.735Z,2.50
2018-08-22T06:10:49.160Z,4.97
2018-08-22T06:14:52.753Z,6.80
2018-08-22T06:18:56.201Z,6.53
2018-08-22T06:22:59.560Z,3.77
2018-08-22T06:27:02.930Z,2.20
2018-08-22T06:31:06.444Z,3.93
2018-08-22T06:35:09.888Z,8.60
2018-08-22T06:39:13.464Z,4.17
2018-08-22T06:43:16.827Z,4.83
2018-08-22T06:47:20.512Z,3.43
2018-08-22T06:51:24.148Z,7.50
2018-08-22T06:55:29.037Z,5.83
2018-08-22T06:59:32.383Z,3.77
2018-08-22T07:03:36.008Z,3.53
2018-08-22T07:07:39.403Z,3.17
2018-08-22T07:11:42.767Z,7.13
2018-08-22T07:15:46.373Z,6.07
2018-08-22T07:19:49.650Z,5.43
2018-08-22T07:23:53.028Z,8.17
2018-08-22T07:27:56.441Z,8.40
2018-08-22T07:31:59.792Z,10.33
2018-08-22T07:36:03.180Z,3.77
2018-08-22T07:40:06.655Z,4.87
2018-08-22T07:44:10.944Z,9.40
2018-08-22T07:48:14.308Z,6.77
2018-08-22T07:52:17.727Z,3.40
2018-08-22T07:56:21.503Z,3.77
2018-08-22T08:00:24.828Z,6.77
2018-08-22T08:04:28.180Z,5.03
2018-08-22T08:08:31.614Z,3.97
2018-08-22T08:12:39.592Z,4.50
2018-08-22T08:16:42.913Z,3.60
2018-08-22T08:20:46.016Z,4.93
2018-08-22T08:24:49.344Z,7.17
2018-08-22T08:28:52.682Z,7.30
2018-08-22T08:32:56.048Z,7.37
2018-08-22T08:36:59.353Z,5.20
2018-08-22T08:41:06.988Z,3.70
2018-08-22T08:45:11.280Z,2.10
2018-08-22T08:49:18.847Z,5.17
2018-08-22T08:53:25.045Z,5.40
2018-08-22T08:57:28.395Z,5.03
2018-08-22T09:01:31.791Z,3.67
2018-08-22T09:05:35.172Z,4.33
2018-08-22T09:09:38.528Z,7.07
2018-08-22T09:13:47.207Z,6.07
2018-08-22T09:17:50.511Z,4.07
2018-08-22T09:21:53.892Z,5.75
2018-08-22T09:25:57.249Z,4.40
2018-08-22T09:30:00.659Z,3.30
2018-08-22T09:34:03.983Z,3.50
2018-08-22T09:38:07.297Z,4.45
2018-08-22T09:42:10.629Z,6.90
2018-08-22T09:46:13.963Z,7.87
2018-08-22T09:50:17.316Z,3.65
2018-08-22T09:54:20.648Z,4.70
2018-08-22T09:58:23.979Z,3.52
2018-08-22T10:02:27.320Z,6.40
2018-08-22T10:06:38.057Z,5.75
2018-08-22T10:10:41.231Z,3.83
2018-08-22T10:14:44.563Z,5.78
2018-08-22T10:18:47.936Z,4.67
2018-08-22T10:22:55.107Z,7.85
2018-08-22T10:26:58.517Z,3.60
2018-08-22T10:31:01.959Z,5.80
2018-08-22T10:35:09.083Z,7.35
2018-08-22T10:39:12.448Z,5.45
2018-08-22T10:43:15.788Z,2.62
2018-08-22T10:47:19.135Z,5.72
2018-08-22T10:51:22.599Z,5.87
2018-08-22T10:55:26.034Z,5.55
2018-08-22T10:59:29.335Z,5.37
2018-08-22T11:03:32.683Z,3.52
2018-08-22T11:07:36.032Z,8.60
2018-08-22T11:11:39.414Z,9.95
2018-08-22T11:15:44.108Z,4.87
2018-08-22T11:19:47.400Z,6.53
2018-08-22T11:24:01.997Z,5.37
2018-08-22T11:28:17.072Z,6.35
2018-08-22T11:32:31.860Z,3.30
2018-08-22T11:36:34.752Z,3.40
2018-08-22T11:40:38.108Z,4.92
2018-08-22T11:44:41.481Z,4.25
2018-08-22T11:48:44.823Z,5.35
2018-08-22T11:52:48.172Z,6.35
2018-08-22T11:56:54.951Z,5.20
2018-08-22T12:00:58.333Z,7.72
2018-08-22T12:05:01.664Z,6.25
2018-08-22T12:09:07.039Z,7.70
2018-08-22T12:13:10.367Z,4.35
2018-08-22T12:17:13.693Z,6.05
2018-08-22T12:21:17.044Z,5.55
2018-08-22T12:25:20.469Z,3.12
2018-08-22T12:29:23.820Z,7.42
2018-08-22T12:33:27.172Z,3.55
2018-08-22T12:37:30.503Z,5.70
2018-08-22T12:41:34.256Z,6.20
2018-08-22T12:45:37.885Z,3.30
2018-08-22T12:49:41.336Z,6.20
2018-08-22T12:53:44.682Z,6.47
2018-08-22T12:57:48.039Z,4.47
2018-08-22T13:01:51.384Z,5.35
2018-08-22T13:05:54.731Z,4.30
2018-08-22T13:09:59.151Z,5.33
2018-08-22T13:14:03.035Z,5.20
2018-08-22T13:18:06.383Z,8.13
2018-08-22T13:22:09.716Z,5.62
2018-08-22T13:26:13.096Z,7.10
2018-08-22T13:30:16.436Z,3.90
2018-08-22T13:34:19.784Z,5.10
2018-08-22T13:38:23.132Z,5.37
2018-08-22T13:42:26.484Z,5.85
2018-08-22T13:46:29.804Z,4.70
2018-08-22T13:50:33.187Z,4.28
2018-08-22T13:54:36.551Z,5.10
2018-08-22T13:58:44.040Z,3.87
2018-08-22T14:02:51.364Z,4.95
2018-08-22T14:06:54.703Z,4.85
2018-08-22T14:10:58.055Z,4.42
2018-08-22T14:15:01.379Z,3.77
2018-08-22T14:19:04.751Z,4.05
2018-08-22T14:27:17.031Z,5.62
2018-08-22T14:31:20.360Z,4.35
2018-08-22T14:35:23.719Z,6.00
2018-08-22T14:39:27.116Z,6.33
2018-08-22T14:43:30.431Z,6.67
2018-08-22T14:47:34.868Z,7.78
2018-08-22T14:51:38.227Z,5.15
2018-08-22T14:55:41.613Z,5.60
2018-08-22T14:59:44.940Z,4.60
2018-08-22T15:03:48.299Z,7.45
2018-08-22T15:07:51.616Z,6.62
2018-08-22T15:11:54.969Z,4.22
2018-08-22T15:15:58.295Z,5.12
2018-08-22T15:20:01.656Z,4.22
2018-08-22T15:24:05.026Z,11.57
2018-08-22T15:28:08.347Z,7.83
2018-08-22T15:32:15.707Z,4.87
2018-08-22T15:36:19.121Z,15.85
2018-08-22T15:40:22.473Z,5.90
2018-08-22T15:44:25.811Z,5.08
2018-08-22T15:48:29.180Z,4.70
2018-08-22T15:52:32.489Z,5.62
2018-08-22T15:56:37.027Z,5.83
2018-08-22T16:00:47.345Z,9.33
2018-08-22T16:04:54.156Z,4.60
2018-08-22T16:08:57.500Z,6.55
2018-08-22T16:13:01.259Z,17.73
2018-08-22T16:17:04.637Z,7.95
2018-08-22T16:21:08.004Z,5.40
2018-08-22T16:25:11.383Z,7.37
2018-08-22T16:29:14.752Z,4.92
2018-08-22T16:33:18.088Z,4.45
2018-08-22T16:37:25.340Z,6.22
2018-08-22T16:41:28.763Z,5.33
2018-08-22T16:45:33.220Z,13.68
2018-08-22T16:49:36.611Z,4.33
2018-08-22T16:53:39.933Z,9.08
2018-08-22T16:57:43.272Z,7.25
2018-08-22T17:01:48.623Z,13.13
2018-08-22T17:05:55.568Z,5.45
2018-08-22T17:09:58.958Z,12.90
2018-08-22T17:14:02.364Z,5.53
2018-08-22T17:18:05.735Z,8.28
2018-08-22T17:22:09.112Z,6.25
2018-08-22T17:26:20.151Z,5.62
2018-08-22T17:30:28.511Z,6.25
2018-08-22T17:34:32.034Z,5.55
2018-08-22T17:38:35.447Z,5.67
2018-08-22T17:42:38.898Z,5.28
2018-08-22T17:46:44.506Z,7.10
2018-08-22T17:50:47.850Z,9.03
2018-08-22T17:54:54.235Z,5.58
2018-08-22T17:58:57.668Z,8.35
2018-08-22T18:03:04.238Z,5.83
2018-08-22T18:07:07.720Z,6.65
2018-08-22T18:11:11.220Z,4.65
2018-08-22T18:15:14.698Z,8.78
2018-08-22T18:19:19.079Z,4.83
2018-08-22T18:23:22.483Z,4.35
2018-08-22T18:27:26.226Z,5.67
2018-08-22T18:31:30.380Z,9.03
2018-08-22T18:35:33.715Z,20.95
2018-08-22T18:39:37.069Z,8.33
2018-08-22T18:43:40.412Z,8.05
2018-08-22T18:47:43.765Z,10.93
2018-08-22T18:51:47.185Z,6.87
2018-08-22T18:56:00.527Z,7.08
2018-08-22T19:00:06.263Z,6.78
2018-08-22T19:04:12.048Z,11.63
2018-08-22T19:08:16.646Z,7.80
2018-08-22T19:12:20.415Z,6.90
2018-08-22T19:16:23.988Z,7.22
2018-08-22T19:20:29.472Z,6.83
2018-08-22T19:24:32.826Z,8.68
2018-08-22T19:28:52.804Z,7.85
2018-08-22T19:32:56.151Z,5.40
2018-08-22T19:36:59.483Z,10.70
2018-08-22T19:41:18.282Z,6.95
2018-08-22T19:45:21.685Z,5.53
2018-08-22T19:49:25.944Z,5.60
2018-08-22T19:53:31.111Z,5.28
2018-08-22T19:57:35.880Z,5.87
2018-08-22T20:01:41.348Z,10.72
2018-08-22T20:05:51.791Z,7.95
2018-08-22T20:09:55.409Z,6.93
2018-08-22T20:14:06.774Z,9.37
2018-08-22T20:18:11.124Z,10.40
2018-08-22T20:22:14.472Z,11.53
2018-08-22T20:26:17.813Z,9.93
2018-08-22T20:30:22.315Z,6.93
2018-08-22T20:34:25.616Z,18.33
2018-08-22T20:38:28.951Z,25.80
2018-08-22T20:42:32.440Z,12.77
2018-08-22T20:46:40.715Z,10.90
2018-08-22T20:50:45.051Z,10.00
2018-08-22T20:54:57.652Z,9.43
2018-08-22T20:59:03.043Z,10.27
2018-08-22T21:03:06.432Z,8.73
2018-08-22T21:07:09.709Z,6.90
2018-08-22T21:11:13.037Z,8.23
2018-08-22T21:15:16.438Z,7.40
2018-08-22T21:19:19.842Z,10.53
2018-08-22T21:23:23.322Z,8.50
2018-08-22T21:27:26.789Z,11.90
2018-08-22T21:31:30.196Z,10.77
2018-08-22T21:35:33.535Z,7.87
2018-08-22T21:39:36.890Z,9.07
2018-08-22T21:43:40.223Z,6.70
2018-08-22T21:47:44.124Z,11.07
2018-08-22T21:51:52.827Z,13.67
2018-08-22T21:55:57.112Z,10.40
2018-08-22T22:00:08.963Z,10.33
2018-08-22T22:04:14.836Z,10.37
2018-08-22T22:08:18.208Z,14.47
2018-08-22T22:12:27.059Z,12.80
2018-08-22T22:16:31.288Z,13.47
2018-08-22T22:20:41.766Z,12.70
2018-08-22T22:25:07.764Z,15.57
2018-08-22T22:29:11.121Z,13.67
2018-08-22T22:33:14.457Z,13.00
2018-08-22T22:37:17.847Z,13.73
2018-08-22T22:41:25.592Z,12.53
2018-08-22T22:45:28.951Z,14.30
2018-08-22T22:49:32.305Z,15.43
2018-08-22T22:53:35.987Z,16.63
2018-08-22T22:57:41.432Z,16.17
2018-08-22T23:01:44.841Z,17.50
2018-08-22T23:05:48.192Z,21.87
2018-08-22T23:09:59.124Z,19.60
2018-08-22T23:14:02.470Z,19.97
2018-08-22T23:18:05.832Z,17.47
2018-08-22T23:22:11.476Z,24.67
2018-08-22T23:26:20.871Z,25.17
2018-08-22T23:30:29.323Z,21.37
2018-08-22T23:34:37.104Z,19.20
2018-08-22T23:39:01.271Z,19.27
2018-08-22T23:43:04.674Z,20.80
2018-08-22T23:47:09.279Z,22.90
2018-08-22T23:51:29.384Z,20.50
2018-08-22T23:55:59.317Z,22.13
